Airfield :
LOGIN :

Register | Disclaimer

   EN    FR    IT 

 










Legend :    VFR   Marginal VFR   IFR   Intensive IFR   Very Intensive IFR
Visi :
Ceiling :
>= 8 km
>= 3000ft
5 to 8 km
1000 to 3000 ft
1500m to 5 km
500 to 1000 ft
800 to 1500m
200 to 500 ft
< 800m
< 200 ft
Symbols :   Thunderstorms  Fog  Heavy snow  Heavy precipitations  Wind > 20 kt
SIGMETs :     Misc.  Thunderstorms  Icing  Turbulence  Mountain Waves  Volcanic Ashes






- Airport Elevation : 160 ft
- IATA code : FMO


EDDG - Münster Osnabrück Int.

CURRENT METAR :
  • 260350Z 00000KT 1500 0400W R25/1000U BCFG NSC 05/05 Q1035 TEMPO 0700 FG

EXPIRED METARs :
  • 260320Z VRB01KT 1800 0350W R25/0500D BCFG FEW018 05/05 Q1035 TEMPO 0700 FG
  • 260250Z 27002KT 2500 0650N R25/P2000N BCFG FEW018 05/05 Q1035 TEMPO 0700 FG
  • 260220Z 00000KT 9999 0600N R25/P2000N BCFG FEW018 06/06 Q1035 NOSIG
  • 260150Z 33001KT 9999 FEW018 06/06 Q1035 NOSIG
  • 260120Z VRB01KT 9999 FEW019 07/06 Q1034 NOSIG

TAF AMD TAF EDDG
Valid from the 26 at 02:00 until the 27 at 00:00 UTC


260255Z 2602/2624 VRB02KT 2500 BCFG FEW015
PROB40
TEMPO 2603/2605 0600 FG BKN002
BECMG 2605/2607 9999
BECMG 2608/2611 36005KT
BECMG 2616/2618 VRB02KT



MET'MAP, your aeronautical weather chart ! - Copyright ORBIFLY December 2007 - Disclaimer

ORBIFLY MET'MAP TEAM :

Programming & Development : Alexandra Zaïnal
Concept & original design : Baudouin d'Aumeries
Assistance for programming : Marc-Olivier Méhu
Technical & hardware support : Manuel Goepfert

Contact : metmap@orbifly.com




SOURCES & CREDITS :

   NOAA